Aqaba Port, Jordan

10:00 PM EEST on October 25, 2014 (GMT +0300)
TalaBay Marina | Change Station
CLOSE
Current Station
Personal Weather Station
Location: Aqaba, AQABA
Elevation: 36 ft
Nearby Weather Stations

Elev 36 ft 29.41 °N, 34.98 °E | Updated 6 minutes ago

Clear
Clear
80.9 °F
Feels Like 79 °F
N
0.0
Wind Variable Wind from North

Today
High -- | Low -- °F
--% Chance of Precip.
Yesterday
High -- | Low -- °F
Precip. -- in
6:47 AM 5:59 PM
Waxing Crescent, 4% visible
Pressure 29.98 in
Visibility -9999.0 miles
Clouds
Heat Index 79 °F
Dew Point 43 °F
Humidity 26%
Rainfall 0.00 in
Snow Depth Not available.
UV 0.0 out of 12
Pollen Not available.
Air Quality Not available.
Flu Activity Not available.
METAR LLET 251850Z 07004KT CAVOK 25/09 Q1015

More Conditions Fewer Conditions

Pressure 29.98 in
Visibility -9999.0 miles
Clouds
Heat Index 79 °F
Dew Point 43 °F
Humidity 26%
Rainfall 0.00 in
Snow Depth Not available.
UV 0.0 out of 12
Pollen Not available.
Air Quality Not available.
Flu Activity Not available.
METAR LLET 251850Z 07004KT CAVOK 25/09 Q1015

More Conditions Fewer Conditions

10-Day Weather Forecast

Almanac

Astronomy

Oct. 25, 2014 Rise Set
Actual Time 6:47 AM EEST 5:59 PM EEST
Civil Twilight 6:23 AM EEST 6:24 PM EEST
Nautical Twilight 5:55 AM EEST 6:52 PM EEST
Astronomical Twilight 5:28 AM EEST 7:19 PM EEST
Moon 8:01 AM EEST 7:13 PM EEST
Length of Visible Light 12h 00m
Length of Day
11h 12m
Tomorrow will be 1m 37s shorter.
Waxing Crescent, 4% of the Moon is Illuminated
Today
Waxing Crescent
Oct 30
First Quarter
Nov 6
Full
Nov 14
Last Quarter
Nov 22
New

Today's Extremes

Country Highs Country Lows

Community

WunderPhotos

Upload Photos

1,764,958 photos uploaded!

Nearby

Snow Depth

Not available.

Earthquake Activity

City Distance Mag. Time & Date
No recent earthquake activity has been reported nearby.
Minimum magnitude displayed is 2.5.

Coastal Water Temperatures

Place Temperature
No Stations Reporting

Nearby Weather Stations